createdAt,value
2019-02-25T00:00:02.553Z,5.86
2019-02-25T00:01:02.508Z,5.78
2019-02-25T00:02:02.491Z,5.74
2019-02-25T00:03:02.423Z,5.78
2019-02-25T00:04:02.382Z,5.75
2019-02-25T00:05:02.332Z,5.71
2019-02-25T00:06:02.288Z,5.68
2019-02-25T00:07:02.251Z,5.61
2019-02-25T00:08:02.228Z,5.57
2019-02-25T00:09:02.185Z,5.54
2019-02-25T00:10:02.115Z,5.49
2019-02-25T00:11:02.065Z,5.53
2019-02-25T00:12:02.035Z,5.43
2019-02-25T00:13:01.979Z,5.43
2019-02-25T00:14:01.961Z,5.42
2019-02-25T00:15:01.897Z,5.45
2019-02-25T00:16:01.852Z,5.49
2019-02-25T00:17:01.805Z,5.49
2019-02-25T00:18:01.758Z,5.46
2019-02-25T00:19:01.709Z,5.48
2019-02-25T00:20:01.691Z,5.51
2019-02-25T00:21:01.626Z,5.53
2019-02-25T00:22:01.584Z,5.51
2019-02-25T00:23:01.531Z,5.49
2019-02-25T00:24:01.484Z,5.49
2019-02-25T00:25:01.442Z,5.38
2019-02-25T00:26:01.424Z,5.42
2019-02-25T00:27:01.365Z,5.43
2019-02-25T00:28:01.319Z,5.36
2019-02-25T00:29:01.278Z,5.30
2019-02-25T00:30:01.235Z,5.33
2019-02-25T00:31:01.177Z,5.28
2019-02-25T00:32:01.157Z,5.33
2019-02-25T00:33:01.087Z,5.27
2019-02-25T00:34:01.067Z,5.27
2019-02-25T00:35:01.004Z,5.17
2019-02-25T00:36:00.958Z,5.25
2019-02-25T00:37:00.906Z,5.18
2019-02-25T00:38:00.886Z,5.22
2019-02-25T00:39:00.849Z,5.17
2019-02-25T00:40:00.783Z,5.21
2019-02-25T00:41:00.737Z,5.25
2019-02-25T00:42:00.691Z,5.13
2019-02-25T00:43:00.651Z,5.22
2019-02-25T00:44:00.623Z,5.15
2019-02-25T00:45:00.548Z,5.13
2019-02-25T00:46:00.508Z,5.15
2019-02-25T00:47:00.468Z,5.17
2019-02-25T00:48:00.423Z,5.17
2019-02-25T00:49:00.378Z,5.22
2019-02-25T00:50:00.381Z,5.09
2019-02-25T00:51:00.283Z,4.99
2019-02-25T00:52:00.235Z,5.00
2019-02-25T00:53:00.207Z,4.91
2019-02-25T00:54:00.175Z,4.96
2019-02-25T00:55:00.229Z,4.78
2019-02-25T00:56:00.056Z,4.86
2019-02-25T00:57:00.014Z,4.92
2019-02-25T00:57:59.969Z,4.89
2019-02-25T00:58:59.960Z,4.97
2019-02-25T00:59:59.884Z,4.84
2019-02-25T01:00:59.840Z,4.89
2019-02-25T01:01:59.798Z,4.78
2019-02-25T01:02:59.744Z,4.67
2019-02-25T01:03:59.723Z,4.67
2019-02-25T01:04:59.656Z,4.72
2019-02-25T01:05:59.611Z,4.82
2019-02-25T01:06:59.581Z,4.82
2019-02-25T01:07:59.524Z,4.92
2019-02-25T01:08:59.511Z,4.91
2019-02-25T01:09:59.439Z,4.92
2019-02-25T01:10:59.397Z,4.84
2019-02-25T01:11:59.354Z,4.84
2019-02-25T01:12:59.308Z,4.84
2019-02-25T01:13:59.282Z,4.75
2019-02-25T01:14:59.203Z,4.72
2019-02-25T01:15:59.162Z,4.82
2019-02-25T01:16:59.121Z,4.85
2019-02-25T01:18:00.003Z,4.85
2019-02-25T01:18:59.034Z,4.78
2019-02-25T01:19:59.012Z,4.89
2019-02-25T01:20:58.942Z,4.92
2019-02-25T01:21:58.902Z,4.86
2019-02-25T01:22:58.846Z,4.89
2019-02-25T01:23:58.801Z,4.94
2019-02-25T01:24:58.789Z,5.00
2019-02-25T01:25:58.719Z,4.99
2019-02-25T01:26:58.665Z,4.91
2019-02-25T01:27:58.616Z,4.94
2019-02-25T01:28:58.577Z,4.94
2019-02-25T01:29:58.549Z,4.91
2019-02-25T01:30:58.496Z,5.04
2019-02-25T01:31:58.442Z,5.02
2019-02-25T01:32:58.430Z,4.96
2019-02-25T01:33:58.359Z,4.96
2019-02-25T01:34:58.308Z,4.99
2019-02-25T01:35:58.259Z,4.92
2019-02-25T01:36:58.266Z,4.88
2019-02-25T01:37:58.200Z,4.88
2019-02-25T01:38:58.136Z,4.92
2019-02-25T01:39:58.085Z,4.84
2019-02-25T01:40:58.034Z,4.82
2019-02-25T01:41:57.987Z,4.88
2019-02-25T01:42:57.953Z,4.91
2019-02-25T01:43:57.931Z,4.89
2019-02-25T01:44:57.861Z,4.91
2019-02-25T01:45:57.817Z,4.82
2019-02-25T01:46:57.773Z,4.92
2019-02-25T01:47:57.719Z,4.94
2019-02-25T01:48:57.699Z,4.96
2019-02-25T01:49:57.629Z,4.89
2019-02-25T01:50:57.591Z,4.86
2019-02-25T01:51:57.545Z,4.91
2019-02-25T01:52:57.505Z,4.88
2019-02-25T01:53:57.460Z,4.77
2019-02-25T01:54:57.431Z,4.77
2019-02-25T01:55:57.363Z,4.82
2019-02-25T01:56:57.321Z,4.73
2019-02-25T01:58:06.679Z,4.72
2019-02-25T01:58:57.247Z,4.67
2019-02-25T01:59:57.181Z,4.67
2019-02-25T02:00:57.141Z,4.69
2019-02-25T02:01:57.093Z,4.60
2019-02-25T02:02:57.049Z,4.55
2019-02-25T02:03:57.030Z,4.60
2019-02-25T02:04:56.953Z,4.54
2019-02-25T02:05:56.909Z,4.54
2019-02-25T02:06:56.865Z,4.55
2019-02-25T02:07:56.817Z,4.48
2019-02-25T02:08:56.779Z,4.51
2019-02-25T02:09:56.765Z,4.36
2019-02-25T02:10:56.683Z,4.32
2019-02-25T02:11:56.638Z,4.34
2019-02-25T02:12:56.602Z,4.29
2019-02-25T02:13:56.554Z,4.32
2019-02-25T02:14:56.534Z,4.36
2019-02-25T02:15:56.477Z,4.27
2019-02-25T02:16:56.410Z,4.33
2019-02-25T02:17:56.369Z,4.27
2019-02-25T02:18:56.350Z,4.18
2019-02-25T02:19:56.303Z,4.18
2019-02-25T02:20:56.239Z,4.23
2019-02-25T02:21:56.190Z,4.18
2019-02-25T02:22:56.147Z,4.14
2019-02-25T02:23:56.103Z,4.16
2019-02-25T02:24:56.079Z,4.20
2019-02-25T02:25:56.006Z,4.11
2019-02-25T02:26:55.972Z,4.04
2019-02-25T02:27:55.921Z,4.05
2019-02-25T02:28:55.870Z,4.04
2019-02-25T02:29:55.828Z,4.05
2019-02-25T02:30:55.810Z,4.05
2019-02-25T02:31:55.738Z,4.04
2019-02-25T02:32:55.700Z,4.04
2019-02-25T02:33:55.654Z,4.14
2019-02-25T02:34:55.611Z,4.09
2019-02-25T02:35:55.562Z,4.16
2019-02-25T02:36:55.534Z,4.12
2019-02-25T02:37:55.463Z,4.06
2019-02-25T02:38:55.418Z,4.16
2019-02-25T02:39:55.378Z,4.14
2019-02-25T02:40:55.333Z,4.04
2019-02-25T02:41:55.292Z,4.04
2019-02-25T02:42:55.265Z,4.00
2019-02-25T02:43:55.194Z,4.02
2019-02-25T02:44:55.159Z,3.87
2019-02-25T02:45:55.139Z,4.02
2019-02-25T02:46:55.072Z,3.98
2019-02-25T02:47:55.032Z,4.14
2019-02-25T02:48:54.965Z,4.02
2019-02-25T02:49:54.922Z,4.02
2019-02-25T02:50:54.874Z,4.04
2019-02-25T02:51:54.851Z,4.08
2019-02-25T02:52:54.792Z,3.98
2019-02-25T02:53:54.775Z,3.93
2019-02-25T02:54:54.702Z,4.06
2019-02-25T02:55:54.658Z,3.88
2019-02-25T02:56:54.601Z,3.96
2019-02-25T02:57:54.561Z,3.96
2019-02-25T02:58:54.520Z,3.80
2019-02-25T02:59:54.499Z,3.94
2019-02-25T03:00:54.424Z,3.97
2019-02-25T03:01:54.378Z,3.96
2019-02-25T03:02:54.337Z,3.86
2019-02-25T03:03:54.295Z,3.98
2019-02-25T03:04:54.251Z,4.00
2019-02-25T03:05:54.226Z,3.94
2019-02-25T03:06:54.158Z,3.90
2019-02-25T03:07:54.120Z,3.91
2019-02-25T03:08:54.058Z,3.86
2019-02-25T03:09:54.016Z,3.79
2019-02-25T03:10:53.998Z,3.91
2019-02-25T03:11:53.921Z,4.15
2019-02-25T03:12:53.890Z,4.09
2019-02-25T03:13:53.841Z,4.18
2019-02-25T03:14:53.789Z,4.36
2019-02-25T03:15:53.741Z,4.65
2019-02-25T03:16:53.727Z,4.73
2019-02-25T03:17:53.664Z,5.04
2019-02-25T03:18:53.614Z,5.02
2019-02-25T03:19:53.574Z,5.31
2019-02-25T03:20:53.514Z,5.40
2019-02-25T03:21:53.473Z,5.48
2019-02-25T03:22:53.451Z,5.65
2019-02-25T03:23:53.380Z,5.81
2019-02-25T03:24:53.342Z,5.96
2019-02-25T03:25:53.296Z,5.96
2019-02-25T03:26:53.249Z,5.99
2019-02-25T03:27:53.201Z,6.11
2019-02-25T03:28:53.177Z,6.01
2019-02-25T03:29:53.109Z,6.06
2019-02-25T03:30:53.093Z,6.03
2019-02-25T03:31:53.029Z,6.03
2019-02-25T03:32:52.974Z,5.97
2019-02-25T03:33:52.957Z,6.09
2019-02-25T03:34:52.891Z,6.22
2019-02-25T03:35:52.834Z,6.52
2019-02-25T03:36:52.804Z,6.51
2019-02-25T03:37:52.753Z,6.64
2019-02-25T03:38:52.732Z,6.66
2019-02-25T03:39:52.663Z,6.62
2019-02-25T03:40:52.612Z,6.69
2019-02-25T03:41:52.567Z,6.70
2019-02-25T03:42:52.527Z,6.70
2019-02-25T03:43:52.479Z,6.81
2019-02-25T03:44:52.468Z,6.84
2019-02-25T03:45:52.398Z,6.67
2019-02-25T03:46:52.346Z,6.59
2019-02-25T03:47:52.302Z,6.55
2019-02-25T03:48:52.265Z,6.30
2019-02-25T03:49:52.220Z,6.25
2019-02-25T03:50:52.202Z,6.25
2019-02-25T03:51:52.136Z,6.56
2019-02-25T03:52:52.125Z,6.61
2019-02-25T03:53:52.036Z,6.71
2019-02-25T03:54:52.006Z,6.58
2019-02-25T03:55:51.948Z,6.51
2019-02-25T03:56:51.931Z,6.43
2019-02-25T03:57:51.871Z,6.37
2019-02-25T03:58:51.839Z,6.34
2019-02-25T03:59:51.770Z,6.33
2019-02-25T04:00:51.780Z,6.33
2019-02-25T04:01:51.673Z,6.15
2019-02-25T04:02:51.640Z,6.04
2019-02-25T04:03:51.596Z,6.04
2019-02-25T04:04:51.540Z,5.91
2019-02-25T04:05:51.573Z,5.79
2019-02-25T04:06:51.454Z,5.54
2019-02-25T04:07:51.413Z,5.49
2019-02-25T04:08:51.382Z,5.33
2019-02-25T04:09:51.349Z,5.18
2019-02-25T04:10:51.282Z,5.07
2019-02-25T04:11:51.236Z,4.94
2019-02-25T04:12:51.185Z,4.73
2019-02-25T04:13:51.146Z,4.72
2019-02-25T04:14:51.098Z,4.54
2019-02-25T04:15:51.090Z,4.51
2019-02-25T04:16:51.015Z,4.42
2019-02-25T04:17:50.974Z,4.24
2019-02-25T04:18:50.921Z,4.23
2019-02-25T04:19:50.877Z,4.23
2019-02-25T04:20:50.839Z,4.00
2019-02-25T04:21:50.809Z,4.00
2019-02-25T04:22:50.748Z,3.90
2019-02-25T04:23:50.705Z,3.88
2019-02-25T04:24:50.646Z,3.75
2019-02-25T04:25:50.627Z,3.68
2019-02-25T04:26:50.558Z,3.62
2019-02-25T04:27:50.509Z,3.60
2019-02-25T04:28:50.475Z,3.47
2019-02-25T04:29:50.427Z,3.48
2019-02-25T04:30:50.383Z,3.47
2019-02-25T04:31:50.359Z,3.33
2019-02-25T04:32:50.286Z,3.43
2019-02-25T04:33:50.240Z,3.43
2019-02-25T04:34:50.203Z,3.33
2019-02-25T04:35:50.160Z,3.42
2019-02-25T04:36:50.134Z,3.35
2019-02-25T04:37:50.068Z,3.31
2019-02-25T04:38:50.021Z,3.29
2019-02-25T04:39:49.966Z,3.33
2019-02-25T04:40:49.936Z,3.26
2019-02-25T04:41:49.882Z,3.36
2019-02-25T04:42:49.865Z,3.28
2019-02-25T04:43:49.795Z,3.28
2019-02-25T04:44:51.285Z,3.26
2019-02-25T04:45:49.707Z,3.24
2019-02-25T04:46:49.675Z,3.23
2019-02-25T04:47:49.606Z,3.13
2019-02-25T04:48:49.564Z,3.17
2019-02-25T04:49:49.520Z,3.20
2019-02-25T04:50:49.476Z,3.10
2019-02-25T04:51:49.444Z,3.14
2019-02-25T04:52:49.385Z,3.15
2019-02-25T04:53:49.339Z,3.13
2019-02-25T04:54:49.289Z,3.11
2019-02-25T04:55:49.246Z,3.08
2019-02-25T04:56:49.223Z,3.15
2019-02-25T04:57:49.150Z,3.03
2019-02-25T04:58:49.103Z,3.15
2019-02-25T04:59:49.059Z,3.08
2019-02-25T05:00:49.018Z,3.08
2019-02-25T05:01:48.975Z,3.06
2019-02-25T05:02:48.957Z,3.08
2019-02-25T05:03:48.884Z,3.05
2019-02-25T05:04:48.830Z,3.06
2019-02-25T05:05:48.782Z,3.06
2019-02-25T05:06:48.742Z,3.11
2019-02-25T05:07:48.725Z,3.08
2019-02-25T05:08:48.647Z,3.11
2019-02-25T05:09:48.605Z,3.06
2019-02-25T05:10:48.564Z,3.10
2019-02-25T05:11:48.508Z,3.02
2019-02-25T05:12:48.476Z,2.95
2019-02-25T05:13:48.448Z,2.95
2019-02-25T05:14:48.383Z,3.03
2019-02-25T05:15:48.332Z,2.96
2019-02-25T05:16:48.282Z,2.85
2019-02-25T05:17:48.259Z,2.79
2019-02-25T05:18:48.212Z,2.74
2019-02-25T05:19:48.151Z,2.75
2019-02-25T05:20:48.102Z,2.82
2019-02-25T05:21:48.059Z,2.75
2019-02-25T05:22:48.029Z,2.84
2019-02-25T05:23:47.957Z,2.87
2019-02-25T05:24:47.924Z,2.85
2019-02-25T05:25:47.875Z,2.84
2019-02-25T05:26:47.826Z,2.81
2019-02-25T05:27:47.807Z,2.85
2019-02-25T05:28:47.750Z,2.97
2019-02-25T05:29:47.686Z,2.89
2019-02-25T05:30:47.648Z,2.84
2019-02-25T05:31:47.595Z,2.89
2019-02-25T05:32:47.554Z,2.84
2019-02-25T05:33:47.533Z,2.79
2019-02-25T05:34:47.483Z,2.84
2019-02-25T05:35:47.418Z,2.77
2019-02-25T05:36:47.364Z,2.67
2019-02-25T05:37:47.318Z,2.74
2019-02-25T05:38:47.278Z,2.78
2019-02-25T05:39:47.256Z,2.77
2019-02-25T05:40:47.181Z,2.79
2019-02-25T05:41:47.136Z,2.72
2019-02-25T05:42:47.091Z,2.77
2019-02-25T05:43:47.043Z,2.71
2019-02-25T05:44:47.029Z,2.72
2019-02-25T05:45:46.957Z,2.75
2019-02-25T05:46:46.901Z,2.72
2019-02-25T05:47:46.866Z,2.72
2019-02-25T05:48:46.820Z,2.72
2019-02-25T05:49:46.797Z,2.72
2019-02-25T05:50:46.727Z,2.71
2019-02-25T05:51:46.681Z,2.64
2019-02-25T05:52:46.629Z,2.59
2019-02-25T05:53:46.660Z,2.59
2019-02-25T05:54:46.548Z,2.59
2019-02-25T05:55:46.499Z,2.63
2019-02-25T05:56:46.441Z,2.60
2019-02-25T05:57:46.397Z,2.59
2019-02-25T05:58:46.384Z,2.54
2019-02-25T05:59:46.318Z,2.54
2019-02-25T06:00:46.301Z,2.57
2019-02-25T06:01:46.226Z,2.60
2019-02-25T06:02:46.179Z,2.52
2019-02-25T06:03:46.126Z,2.52
2019-02-25T06:04:46.073Z,2.57
2019-02-25T06:05:46.054Z,2.60
2019-02-25T06:06:46.007Z,2.60
2019-02-25T06:07:45.936Z,2.57
2019-02-25T06:08:45.903Z,2.59
2019-02-25T06:09:45.853Z,2.60
2019-02-25T06:10:45.797Z,2.49
2019-02-25T06:11:45.775Z,2.54
2019-02-25T06:12:45.722Z,2.52
2019-02-25T06:13:45.675Z,2.59
2019-02-25T06:14:45.648Z,2.52
2019-02-25T06:15:45.575Z,2.46
2019-02-25T06:16:45.544Z,2.52
2019-02-25T06:17:45.475Z,2.49
2019-02-25T06:18:45.433Z,2.49
2019-02-25T06:19:45.383Z,2.38
2019-02-25T06:20:45.346Z,2.41
2019-02-25T06:21:45.321Z,2.39
2019-02-25T06:22:45.251Z,2.53
2019-02-25T06:23:45.204Z,2.59
2019-02-25T06:24:45.162Z,2.45
2019-02-25T06:25:45.107Z,2.49
2019-02-25T06:26:45.087Z,2.46
2019-02-25T06:27:45.023Z,2.52
2019-02-25T06:28:44.970Z,2.42
2019-02-25T06:29:44.925Z,2.31
2019-02-25T06:30:44.878Z,2.42
2019-02-25T06:31:44.851Z,2.45
2019-02-25T06:32:44.789Z,2.56
2019-02-25T06:33:44.741Z,2.56
2019-02-25T06:34:44.700Z,2.54
2019-02-25T06:35:44.647Z,2.52
2019-02-25T06:36:44.626Z,2.56
2019-02-25T06:37:44.581Z,2.52
2019-02-25T06:38:44.509Z,2.48
2019-02-25T06:39:44.461Z,2.56
2019-02-25T06:40:44.421Z,2.45
2019-02-25T06:41:44.377Z,2.43
2019-02-25T06:42:44.322Z,2.49
2019-02-25T06:43:44.298Z,2.45
2019-02-25T06:44:44.267Z,2.56
2019-02-25T06:45:44.192Z,2.52
2019-02-25T06:46:44.142Z,2.49
2019-02-25T06:47:44.102Z,2.53
2019-02-25T06:48:44.043Z,2.57
2019-02-25T06:49:43.995Z,2.49
2019-02-25T06:50:43.986Z,2.54
2019-02-25T06:51:43.903Z,2.53
2019-02-25T06:52:43.865Z,2.53
2019-02-25T06:53:43.827Z,2.46
2019-02-25T06:54:43.778Z,2.54
2019-02-25T06:55:43.751Z,2.57
2019-02-25T06:56:43.677Z,2.54
2019-02-25T06:57:43.659Z,2.57
2019-02-25T06:58:43.593Z,2.59
2019-02-25T06:59:43.547Z,2.64
2019-02-25T07:00:43.492Z,2.66
2019-02-25T07:01:43.446Z,2.78
2019-02-25T07:02:43.399Z,3.24
2019-02-25T07:03:43.692Z,3.70
2019-02-25T07:04:43.315Z,4.33
2019-02-25T07:05:43.270Z,4.80
2019-02-25T07:06:43.221Z,5.74
2019-02-25T07:07:43.174Z,6.34
2019-02-25T07:08:43.127Z,6.74
2019-02-25T07:09:43.115Z,7.37
2019-02-25T07:10:43.036Z,7.71
2019-02-25T07:11:42.987Z,8.05
2019-02-25T07:12:43.112Z,8.34
2019-02-25T07:13:42.905Z,8.58
2019-02-25T07:14:42.877Z,8.80
2019-02-25T07:15:42.920Z,8.91
2019-02-25T07:16:42.787Z,8.99
2019-02-25T07:17:42.731Z,9.15
2019-02-25T07:18:42.693Z,9.11
2019-02-25T07:19:42.810Z,9.28
2019-02-25T07:20:42.837Z,9.38
2019-02-25T07:21:42.810Z,9.28
2019-02-25T07:22:42.522Z,9.39
2019-02-25T07:23:42.558Z,9.33
2019-02-25T07:24:42.597Z,9.35
2019-02-25T07:25:42.417Z,9.47
2019-02-25T07:26:42.346Z,9.65
2019-02-25T07:27:42.332Z,9.78
2019-02-25T07:28:42.251Z,9.89
2019-02-25T07:29:42.203Z,10.11
2019-02-25T07:30:42.176Z,10.14
2019-02-25T07:31:42.171Z,10.18
2019-02-25T07:32:42.091Z,10.20
2019-02-25T07:33:42.053Z,10.26
2019-02-25T07:34:42.042Z,10.17
2019-02-25T07:35:41.973Z,10.20
2019-02-25T07:36:41.998Z,9.96
2019-02-25T07:37:41.892Z,10.02
2019-02-25T07:38:41.842Z,10.15
2019-02-25T07:39:41.801Z,10.01
2019-02-25T07:40:41.751Z,10.25
2019-02-25T07:41:41.713Z,10.23
2019-02-25T07:42:41.702Z,10.23
2019-02-25T07:43:41.631Z,10.34
2019-02-25T07:44:41.599Z,10.29
2019-02-25T07:45:41.564Z,10.32
2019-02-25T07:46:41.590Z,10.60
2019-02-25T07:47:41.490Z,10.59
2019-02-25T07:48:42.414Z,10.89
2019-02-25T07:49:41.452Z,10.94
2019-02-25T07:50:47.253Z,11.14
2019-02-25T07:51:41.313Z,11.17
2019-02-25T07:52:41.288Z,11.04
2019-02-25T07:53:41.237Z,10.96
2019-02-25T07:54:41.306Z,11.21
2019-02-25T07:55:41.147Z,11.17
2019-02-25T07:56:41.130Z,11.10
2019-02-25T07:57:41.099Z,11.35
2019-02-25T07:58:41.066Z,11.49
2019-02-25T07:59:41.001Z,11.85
2019-02-25T08:00:41.101Z,12.05
2019-02-25T08:01:41.004Z,11.85
2019-02-25T08:02:41.161Z,12.02
2019-02-25T08:03:40.841Z,12.21
2019-02-25T08:04:40.840Z,11.91
2019-02-25T08:05:40.762Z,12.07
2019-02-25T08:06:40.956Z,12.12
2019-02-25T08:07:40.681Z,12.29
2019-02-25T08:08:40.666Z,12.41
2019-02-25T08:09:40.636Z,12.45
2019-02-25T08:10:40.577Z,12.78
2019-02-25T08:11:40.711Z,12.83
2019-02-25T08:12:40.489Z,12.87
2019-02-25T08:13:40.449Z,13.23
2019-02-25T08:14:40.415Z,13.62
2019-02-25T08:15:40.403Z,13.57
2019-02-25T08:16:40.389Z,13.95
2019-02-25T08:17:40.303Z,14.33
2019-02-25T08:18:40.262Z,14.57
2019-02-25T08:19:40.342Z,14.64
2019-02-25T08:20:40.324Z,14.89
2019-02-25T08:21:40.180Z,15.17
2019-02-25T08:22:40.188Z,15.36
2019-02-25T08:23:40.153Z,15.29
2019-02-25T08:24:40.043Z,15.31
2019-02-25T08:25:40.043Z,15.19
2019-02-25T08:26:40.015Z,15.36
2019-02-25T08:27:39.960Z,15.19
2019-02-25T08:28:39.906Z,15.10
2019-02-25T08:29:39.863Z,15.51
2019-02-25T08:30:39.830Z,15.90
2019-02-25T08:31:39.830Z,16.08
2019-02-25T08:32:39.775Z,15.80
2019-02-25T08:33:39.924Z,16.17
2019-02-25T08:34:39.691Z,15.92
2019-02-25T08:35:39.647Z,16.27
2019-02-25T08:36:39.633Z,15.87
2019-02-25T08:37:39.741Z,15.87
2019-02-25T08:38:39.612Z,15.69
2019-02-25T08:39:39.716Z,15.38
2019-02-25T08:40:39.480Z,15.46
2019-02-25T08:41:39.482Z,15.56
2019-02-25T08:42:39.404Z,15.90
2019-02-25T08:43:39.382Z,16.48
2019-02-25T08:44:39.348Z,16.66
2019-02-25T08:45:39.385Z,16.68
2019-02-25T08:46:39.313Z,16.83
2019-02-25T08:47:39.287Z,17.00
2019-02-25T08:48:39.206Z,17.30
2019-02-25T08:49:39.200Z,17.54
2019-02-25T08:50:39.120Z,17.92
2019-02-25T08:51:39.076Z,18.42
2019-02-25T08:52:39.144Z,18.85
2019-02-25T08:53:39.022Z,18.51
2019-02-25T08:54:38.982Z,18.10
2019-02-25T08:55:39.071Z,17.97
2019-02-25T08:56:38.912Z,17.96
2019-02-25T08:57:38.876Z,18.26
2019-02-25T08:58:38.851Z,18.55
2019-02-25T08:59:38.964Z,18.18
2019-02-25T09:00:38.779Z,18.42
2019-02-25T09:01:38.774Z,18.35
2019-02-25T09:02:38.710Z,18.69
2019-02-25T09:03:38.676Z,18.51
2019-02-25T09:04:38.636Z,18.75
2019-02-25T09:05:38.766Z,18.75
2019-02-25T09:06:38.607Z,18.37
2019-02-25T09:07:38.541Z,18.80
2019-02-25T09:08:38.506Z,18.82
2019-02-25T09:09:38.468Z,18.58
2019-02-25T09:10:38.435Z,18.81
2019-02-25T09:11:38.430Z,18.99
2019-02-25T09:12:38.434Z,19.22
2019-02-25T09:13:38.342Z,19.59
2019-02-25T09:14:38.310Z,19.21
2019-02-25T09:15:38.311Z,19.21
2019-02-25T09:16:38.266Z,19.28
2019-02-25T09:17:38.205Z,19.37
2019-02-25T09:18:38.175Z,18.98
2019-02-25T09:19:38.136Z,19.31
2019-02-25T09:20:38.113Z,19.69
2019-02-25T09:21:38.095Z,20.26
2019-02-25T09:22:38.061Z,20.26
2019-02-25T09:23:38.006Z,19.51
2019-02-25T09:24:37.984Z,18.87
2019-02-25T09:25:37.948Z,18.70
2019-02-25T09:26:37.926Z,18.60
2019-02-25T09:27:37.907Z,18.17
2019-02-25T09:28:37.841Z,17.92
2019-02-25T09:29:37.810Z,18.02
2019-02-25T09:30:37.772Z,18.52
2019-02-25T09:31:37.746Z,18.82
2019-02-25T09:32:37.746Z,19.08
2019-02-25T09:33:37.681Z,19.02
2019-02-25T09:34:37.649Z,19.11
2019-02-25T09:35:37.614Z,18.81
2019-02-25T09:36:37.575Z,18.72
2019-02-25T09:37:37.548Z,18.54
2019-02-25T09:38:37.539Z,18.87
2019-02-25T09:39:37.485Z,19.18
2019-02-25T09:40:37.448Z,19.71
2019-02-25T09:41:37.430Z,20.03
2019-02-25T09:42:37.377Z,20.13
2019-02-25T09:43:37.376Z,20.03
2019-02-25T09:44:38.009Z,19.77
2019-02-25T09:45:37.300Z,20.01
2019-02-25T09:46:37.254Z,20.32
2019-02-25T09:47:37.222Z,20.70
2019-02-25T09:48:37.223Z,20.73
2019-02-25T09:49:37.162Z,20.97
2019-02-25T09:50:37.117Z,20.16
2019-02-25T09:51:37.110Z,20.39
2019-02-25T09:52:37.059Z,20.62
2019-02-25T09:53:37.055Z,19.29
2019-02-25T09:54:36.989Z,18.63
2019-02-25T09:55:36.961Z,18.44
2019-02-25T09:56:37.448Z,18.55
2019-02-25T09:57:37.042Z,18.88
2019-02-25T09:58:36.948Z,19.26
2019-02-25T09:59:36.945Z,19.78
2019-02-25T10:00:36.790Z,20.35
2019-02-25T10:01:36.848Z,20.89
2019-02-25T10:02:36.862Z,21.09
2019-02-25T10:03:36.695Z,21.17
2019-02-25T10:04:36.953Z,20.59
2019-02-25T10:05:36.668Z,20.70
2019-02-25T10:06:36.733Z,20.41
2019-02-25T10:07:36.572Z,20.58
2019-02-25T10:08:36.543Z,20.89
2019-02-25T10:09:36.505Z,21.09
2019-02-25T10:10:36.665Z,20.55
2019-02-25T10:11:36.443Z,19.95
2019-02-25T10:12:36.402Z,19.76
2019-02-25T10:13:36.388Z,19.92
2019-02-25T10:14:36.359Z,19.81
2019-02-25T10:15:36.309Z,19.83
2019-02-25T10:16:36.283Z,20.05
2019-02-25T10:17:36.262Z,20.17
2019-02-25T10:18:36.228Z,20.28
2019-02-25T10:19:36.208Z,20.73
2019-02-25T10:20:36.463Z,21.04
2019-02-25T10:21:36.115Z,21.16
2019-02-25T10:22:36.104Z,20.92
2019-02-25T10:23:36.052Z,20.11
2019-02-25T10:24:36.054Z,20.01
2019-02-25T10:25:36.005Z,20.02
2019-02-25T10:26:35.981Z,19.73
2019-02-25T10:27:35.924Z,20.26
2019-02-25T10:28:35.909Z,20.32
2019-02-25T10:29:35.897Z,20.76
2019-02-25T10:30:35.839Z,21.01
2019-02-25T10:31:37.562Z,20.98
2019-02-25T10:32:35.760Z,21.19
2019-02-25T10:33:35.752Z,21.46
2019-02-25T10:34:35.707Z,21.16
2019-02-25T10:35:35.695Z,21.10
2019-02-25T10:36:35.645Z,20.85
2019-02-25T10:37:36.323Z,20.92
2019-02-25T10:38:37.472Z,20.92
2019-02-25T10:39:35.547Z,21.13
2019-02-25T10:40:35.533Z,21.27
2019-02-25T10:41:35.485Z,20.77
2019-02-25T10:42:36.134Z,20.48
2019-02-25T10:43:36.578Z,20.76
2019-02-25T10:44:36.151Z,21.17
2019-02-25T10:45:37.313Z,21.32
2019-02-25T10:46:35.327Z,20.47
2019-02-25T10:47:35.288Z,20.69
2019-02-25T10:48:35.294Z,20.58
2019-02-25T10:49:35.234Z,20.51
2019-02-25T10:50:36.039Z,20.48
2019-02-25T10:51:36.816Z,20.57
2019-02-25T10:52:35.150Z,20.88
2019-02-25T10:53:35.113Z,21.27
2019-02-25T10:54:35.100Z,21.12
2019-02-25T10:55:35.042Z,21.29
2019-02-25T10:56:35.021Z,21.22
2019-02-25T10:57:34.989Z,21.32
2019-02-25T10:58:35.986Z,21.32
2019-02-25T10:59:36.765Z,21.59
2019-02-25T11:00:35.749Z,21.83
2019-02-25T11:01:36.982Z,21.83
2019-02-25T11:02:43.852Z,22.12
2019-02-25T11:03:34.792Z,22.22
2019-02-25T11:04:34.905Z,22.20
2019-02-25T11:05:34.733Z,22.25
2019-02-25T11:06:35.999Z,22.43
2019-02-25T11:07:35.428Z,22.45
2019-02-25T11:08:35.285Z,22.43
2019-02-25T11:09:34.668Z,22.20
2019-02-25T11:10:34.603Z,21.17
2019-02-25T11:11:34.542Z,21.01
2019-02-25T11:12:34.577Z,20.92
2019-02-25T11:13:36.520Z,21.16
2019-02-25T11:14:35.961Z,21.16
2019-02-25T11:15:34.440Z,21.07
2019-02-25T11:16:34.387Z,21.13
2019-02-25T11:17:34.373Z,21.32
2019-02-25T11:18:34.310Z,21.37
2019-02-25T11:19:34.278Z,21.27
2019-02-25T11:20:35.876Z,21.61
2019-02-25T11:21:35.292Z,21.61
2019-02-25T11:22:34.190Z,21.75
2019-02-25T11:23:34.164Z,21.49
2019-02-25T11:24:34.124Z,21.22
2019-02-25T11:25:34.088Z,20.87
2019-02-25T11:26:35.373Z,20.99
2019-02-25T11:27:35.886Z,21.17
2019-02-25T11:28:35.980Z,21.07
2019-02-25T11:29:33.996Z,21.25
2019-02-25T11:30:33.945Z,21.54
2019-02-25T11:31:33.895Z,21.37
2019-02-25T11:32:33.889Z,21.50
2019-02-25T11:33:34.374Z,21.50
2019-02-25T11:34:35.572Z,21.14
2019-02-25T11:35:34.257Z,20.70
2019-02-25T11:36:33.750Z,20.69
2019-02-25T11:37:33.723Z,20.89
2019-02-25T11:38:37.085Z,20.87
2019-02-25T11:39:34.965Z,20.99
2019-02-25T11:40:34.284Z,21.16
2019-02-25T11:41:34.344Z,21.42
2019-02-25T11:42:33.565Z,21.21
2019-02-25T11:43:33.561Z,21.40
2019-02-25T11:44:33.505Z,21.32
2019-02-25T11:45:33.478Z,21.35
2019-02-25T11:46:33.471Z,21.53
2019-02-25T11:47:33.417Z,21.52
2019-02-25T11:48:33.363Z,21.42
2019-02-25T11:49:33.372Z,21.13
2019-02-25T11:50:33.299Z,20.92
2019-02-25T11:51:33.295Z,21.16
2019-02-25T11:52:33.255Z,21.19
2019-02-25T11:53:33.220Z,21.13
2019-02-25T11:54:33.225Z,20.94
2019-02-25T11:55:33.189Z,20.74
2019-02-25T11:56:33.120Z,21.01
2019-02-25T11:57:33.102Z,21.01
2019-02-25T11:58:33.100Z,20.77
2019-02-25T11:59:33.037Z,20.58
2019-02-25T12:00:33.074Z,20.57
2019-02-25T12:01:33.015Z,20.66
2019-02-25T12:02:32.942Z,20.54
2019-02-25T12:03:32.919Z,20.39
2019-02-25T12:04:32.884Z,20.28
2019-02-25T12:05:32.878Z,20.14
2019-02-25T12:06:32.849Z,20.14
2019-02-25T12:07:32.809Z,20.38
2019-02-25T12:08:32.784Z,20.61
2019-02-25T12:09:32.729Z,20.73
2019-02-25T12:10:32.690Z,20.99
2019-02-25T12:11:32.706Z,21.14
2019-02-25T12:12:32.624Z,21.21
2019-02-25T12:13:32.627Z,20.98
2019-02-25T12:14:32.590Z,20.87
2019-02-25T12:15:32.569Z,20.64
2019-02-25T12:16:32.520Z,20.54
2019-02-25T12:17:32.527Z,20.74
2019-02-25T12:18:32.445Z,20.87
2019-02-25T12:19:32.446Z,20.95
2019-02-25T12:20:32.368Z,20.85
2019-02-25T12:21:32.369Z,20.74
2019-02-25T12:22:32.340Z,20.74
2019-02-25T12:23:32.289Z,20.84
2019-02-25T12:24:32.268Z,21.03
2019-02-25T12:25:32.219Z,20.99
2019-02-25T12:26:32.237Z,21.03
2019-02-25T12:27:32.181Z,20.76
2019-02-25T12:28:32.149Z,20.59
2019-02-25T12:29:32.120Z,20.58
2019-02-25T12:30:32.111Z,20.38
2019-02-25T12:31:32.053Z,20.57
2019-02-25T12:32:32.002Z,20.36
2019-02-25T12:33:31.972Z,20.14
2019-02-25T12:34:31.947Z,20.29
2019-02-25T12:35:31.915Z,20.42
2019-02-25T12:36:31.904Z,20.52
2019-02-25T12:37:31.858Z,20.33
2019-02-25T12:38:31.816Z,20.13
2019-02-25T12:39:31.789Z,20.11
2019-02-25T12:40:31.753Z,20.17
2019-02-25T12:41:31.768Z,20.31
2019-02-25T12:42:31.684Z,20.20
2019-02-25T12:43:31.657Z,20.05
2019-02-25T12:44:31.633Z,19.92
2019-02-25T12:45:31.611Z,20.14
2019-02-25T12:46:31.597Z,20.14
2019-02-25T12:47:31.548Z,20.18
2019-02-25T12:48:31.503Z,20.16
2019-02-25T12:49:31.495Z,20.20
2019-02-25T12:50:31.453Z,20.16
2019-02-25T12:51:31.433Z,20.03
2019-02-25T12:52:31.431Z,20.03
2019-02-25T12:53:31.376Z,19.96
2019-02-25T12:54:31.313Z,19.94
2019-02-25T12:55:31.317Z,19.91
2019-02-25T12:56:31.296Z,19.78
2019-02-25T12:57:31.233Z,19.71
2019-02-25T12:58:31.194Z,19.50
2019-02-25T12:59:31.187Z,19.28
2019-02-25T13:00:31.132Z,19.29
2019-02-25T13:01:31.095Z,19.25
2019-02-25T13:02:31.075Z,19.28
2019-02-25T13:03:31.076Z,19.29
2019-02-25T13:04:31.034Z,19.25
2019-02-25T13:05:30.997Z,19.31
2019-02-25T13:06:30.940Z,19.29